Flight Track Log - Related Links

Times and Time Zones

All times are in EDT time to prevent confusion due to time zone crossing. See the ASQ4281 flight status page for this flight to view local times or setup timezone preferences in your user account.


Time Position Orientation Groundspeed Altitude Reporting Facility
EDT Latitude Longitude Course Direction KTS MPH feet Rate Location/Type
Wed 05:12:34 PM 42.0000 -87.8833 95° East 143 165 2,000  Level Chicago TRACON
Wed 05:13:49 PM 42.0064 -87.8039 84° East 199 229 4,300 2,146 Climbing Chicago Center
Wed 05:14:51 PM 42.0061 -87.7006 90° East 272 313 6,900 2,661 Climbing Chicago Center
Wed 05:15:00 PM 41.9630 -87.4961 98° East  Level FlightAware Approximate
Wed 05:15:53 PM 41.9969 -87.5967 97° East 279 321 9,800  Level Chicago Center
Wed 05:16:00 PM 41.9497 -87.3625 95° East  Level FlightAware Approximate
Wed 05:16:55 PM 41.9861 -87.4850 97° East 300 345 11,400  Level Chicago Center
Wed 05:17:00 PM 41.9402 -87.2284 95° East  Level FlightAware Approximate
Wed 05:17:57 PM 41.9747 -87.3528 97° East 349 402 12,500  Level Chicago Center
Wed 05:18:59 PM 41.9569 -87.1792 98° East 385 443 14,200 1,258 Climbing Chicago Center
Wed 05:20:01 PM 41.9467 -87.0286 95° East 406 467 15,100 1,016 Climbing Chicago Center
Wed 05:21:03 PM 41.9472 -86.8739 90° East 413 475 16,300 1,258 Climbing Chicago Center
Wed 05:22:05 PM 41.9508 -86.7169 88° East 421 484 17,700 1,248 Climbing Chicago Center
Wed 05:23:08 PM 41.9522 -86.5556 89° East 422 486 18,900 720 Climbing Chicago Center
Wed 05:24:10 PM 41.9278 -86.3972 102° East 433 498 19,200 968 Climbing Chicago Center
Wed 05:25:12 PM 41.8894 -86.2061 105° East 442 509 20,900 864 Climbing Chicago Center
Wed 05:26:15 PM 41.8567 -86.0447 105° East 447 514 21,000 48 Climbing Chicago Center
Wed 05:27:16 PM 41.7961 -85.8992 119° Southeast 453 521 21,000  Level Chicago Center
Wed 05:28:18 PM 41.6956 -85.7992 143° Southeast 456 525 21,000  Level Chicago Center
Wed 05:29:20 PM 41.6036 -85.6803 136° Southeast 466 536 21,000  Level Chicago Center
Wed 05:30:22 PM 41.4950 -85.5417 136° Southeast 461 531 21,000  Level Chicago Center
Wed 05:31:24 PM 41.4069 -85.4267 136° Southeast 454 522 21,000  Level Chicago Center
Wed 05:32:26 PM 41.3161 -85.3122 137° Southeast 454 522 21,000  Level Chicago Center
Wed 05:33:28 PM 41.2261 -85.1983 136° Southeast 452 520 21,000  Level Chicago Center
Wed 05:34:30 PM 41.1344 -85.0836 137° Southeast 453 521 21,000 -816 Level Chicago Center
Wed 05:35:33 PM 41.0247 -84.9450 136° Southeast 455 524 19,300 -1,728 Descending Chicago Center
Wed 05:36:35 PM 40.9361 -84.8353 137° Southeast 445 512 17,400 -1,887 Descending Chicago Center
Wed 05:37:37 PM 40.8492 -84.7294 137° Southeast 431 496 15,400 -1,412 Descending Chicago Center
Wed 05:38:17 PM 40.7964 -84.6653 137° Southeast 422 486 15,000 -235 Descending Indianapolis Center
Wed 05:39:19 PM 40.6989 -84.5433 137° Southeast 411 473 15,000  Level Indianapolis Center
Wed 05:40:15 PM 40.6200 -84.4489 138° Southeast 417 480 15,000 -70 Level Indianapolis Center
Wed 05:40:45 PM 40.5742 -84.3931 137° Southeast 420 483 14,900 -870 Descending Indianapolis Center
Wed 05:41:24 PM 40.5267 -84.3325 136° Southeast 418 481 14,000 -1,842 Descending Indianapolis Center
Wed 05:42:26 PM 40.4467 -84.2375 138° Southeast 389 448 11,800 -1,742 Descending Indianapolis Center
Wed 05:43:28 PM 40.3519 -84.2011 164° South 355 409 10,400 -1,403 Descending Indianapolis Center
Wed 05:44:30 PM 40.2717 -84.1683 163° South 312 359 8,900 -1,161 Descending Indianapolis Center
Wed 05:45:32 PM 40.1811 -84.1503 171° South 287 330 8,000 -435 Descending Indianapolis Center
Wed 05:46:34 PM 40.0997 -84.1369 173° South 289 333 8,000  Level Indianapolis Center
Wed 05:47:36 PM 40.0347 -84.1761 205° Southwest 285 328 8,000 -242 Level Indianapolis Center
Wed 05:48:38 PM 39.9886 -84.2550 233° Southwest 274 315 7,500 -823 Descending Indianapolis Center
Wed 05:49:40 PM 39.9503 -84.3364 238° Southwest 265 305 6,300 -1,306 Descending Indianapolis Center
Wed 05:50:42 PM 39.9186 -84.4169 243° Southwest 256 295 4,800 -1,355 Descending Indianapolis Center
Wed 05:51:44 PM 39.8786 -84.4681 224° Southwest 242 278 3,500 -919 Descending Indianapolis Center
Wed 05:52:46 PM 39.8294 -84.4203 143° Southeast 203 234 2,900 -581 Descending Indianapolis Center

Login

Don't have an account? Register now (free) for customized features, flight alerts, and more!